Time;durP1;ratioP1;P1;durP2;ratioP2;P2;SDS_P1;SDS_P2;PMS_P1;PMS_P2;Temp;Humidity;BMP_temperature;BMP_pressure;BME280_temperature;BME280_humidity;BME280_pressure;Samples;Min_cycle;Max_cycle;Signal;HPM_P1;HPM_P2
2021/12/07 00:01:34;;;;;;;6.32;5.15;;;2.70;99.90;;;;;;5068196;28;20070;-43
2021/12/07 00:04:00;;;;;;;5.75;4.85;;;2.70;99.90;;;;;;5065187;28;20047;-43
2021/12/07 00:06:26;;;;;;;6.57;5.55;;;2.70;99.90;;;;;;5067743;28;20388;-42
2021/12/07 00:08:54;;;;;;;5.63;5.03;;;2.70;99.90;;;;;;5068135;28;20036;-43
2021/12/07 00:11:23;;;;;;;6.60;5.47;;;2.70;99.90;;;;;;5068682;28;20119;-43
2021/12/07 00:13:48;;;;;;;6.18;5.18;;;2.70;99.90;;;;;;5067540;28;20111;-43
2021/12/07 00:16:14;;;;;;;6.80;5.60;;;2.70;99.90;;;;;;5069143;28;20488;-43
2021/12/07 00:18:40;;;;;;;5.78;5.18;;;2.70;99.90;;;;;;5067811;28;20028;-43
2021/12/07 00:21:07;;;;;;;5.95;5.35;;;2.70;99.90;;;;;;5067432;28;20036;-43
2021/12/07 00:23:35;;;;;;;6.43;5.18;;;2.70;99.90;;;;;;5067424;28;20067;-42
2021/12/07 00:26:01;;;;;;;5.45;4.80;;;2.70;99.90;;;;;;5067487;28;20503;-43
2021/12/07 00:28:26;;;;;;;6.25;5.43;;;2.70;99.90;;;;;;5067388;28;20028;-44
2021/12/07 00:30:53;;;;;;;6.18;5.28;;;2.70;99.90;;;;;;5067774;28;20499;-42
2021/12/07 00:35:53;;;;;;;5.95;5.20;;;2.60;99.90;;;;;;5063880;28;20028;-43
2021/12/07 00:38:23;;;;;;;6.47;4.97;;;2.60;99.90;;;;;;5066181;28;20107;-43
2021/12/07 00:40:50;;;;;;;6.75;5.70;;;2.60;99.90;;;;;;5065263;28;20032;-42
2021/12/07 00:43:16;;;;;;;5.50;4.93;;;2.60;99.90;;;;;;5066152;28;20036;-43
2021/12/07 00:45:45;;;;;;;6.05;4.97;;;2.60;99.90;;;;;;5065713;28;20506;-44
2021/12/07 00:48:12;;;;;;;6.78;5.35;;;2.60;99.90;;;;;;5063126;28;20020;-44
2021/12/07 00:50:40;;;;;;;5.72;4.88;;;2.60;99.90;;;;;;5066127;28;20024;-43
2021/12/07 00:53:06;;;;;;;6.30;5.20;;;2.60;99.90;;;;;;5065992;28;20143;-44
2021/12/07 00:55:35;;;;;;;6.53;5.45;;;2.60;99.90;;;;;;5065025;28;20107;-43
2021/12/07 00:58:06;;;;;;;6.07;5.30;;;2.60;99.90;;;;;;5065943;28;20102;-43
2021/12/07 01:00:31;;;;;;;6.43;5.20;;;2.60;99.90;;;;;;5064187;28;20534;-43
2021/12/07 01:02:58;;;;;;;6.18;5.30;;;2.60;99.90;;;;;;5064814;28;20013;-43
2021/12/07 01:05:29;;;;;;;6.00;5.32;;;2.60;99.90;;;;;;5065549;28;20415;-43
2021/12/07 01:26:59;;;;;;;7.03;5.03;;;2.60;99.90;;;;;;5064483;28;20153;-43
2021/12/07 01:29:26;;;;;;;5.40;4.85;;;2.60;99.90;;;;;;5066447;28;20032;-43
2021/12/07 01:35:07;;;;;;;5.78;4.90;;;2.60;99.90;;;;;;5065832;28;20033;-42
2021/12/07 01:37:53;;;;;;;5.28;4.72;;;2.50;99.90;;;;;;5064044;28;20028;-41
2021/12/07 01:43:25;;;;;;;5.22;4.55;;;2.50;99.90;;;;;;5065828;28;20704;-43
2021/12/07 01:46:12;;;;;;;5.22;4.70;;;2.50;99.90;;;;;;5065046;28;20044;-43
2021/12/07 01:51:42;;;;;;;5.75;5.15;;;2.50;99.90;;;;;;5065498;28;20055;-43
2021/12/07 01:59:37;;;;;;;6.53;5.80;;;2.50;99.90;;;;;;5044358;28;20094;-43
2021/12/07 02:02:09;;;;;;;7.50;6.22;;;2.50;99.90;;;;;;5059823;28;20032;-43
2021/12/07 02:04:35;;;;;;;7.38;6.60;;;2.50;99.90;;;;;;5065512;28;20107;-43
2021/12/07 02:07:02;;;;;;;9.27;7.38;;;2.50;99.90;;;;;;5064410;28;20387;-44
2021/12/07 02:09:27;;;;;;;10.25;8.73;;;2.40;99.90;;;;;;5065308;28;20071;-42
2021/12/07 02:11:59;;;;;;;9.63;7.80;;;2.40;99.90;;;;;;5065088;28;20545;-42
2021/12/07 02:14:25;;;;;;;9.60;8.18;;;2.40;99.90;;;;;;5065696;28;20029;-42
2021/12/07 02:16:53;;;;;;;10.25;8.27;;;2.30;99.90;;;;;;5065784;28;20699;-44
2021/12/07 02:19:20;;;;;;;9.10;7.55;;;2.40;99.90;;;;;;5062826;28;20016;-43
2021/12/07 02:21:46;;;;;;;9.95;8.15;;;2.30;99.90;;;;;;5066034;28;20023;-43
2021/12/07 02:24:12;;;;;;;11.35;8.43;;;2.30;99.90;;;;;;5066401;28;20040;-42
2021/12/07 02:26:37;;;;;;;9.38;7.82;;;2.30;99.90;;;;;;5065991;28;20457;-43
2021/12/07 02:29:04;;;;;;;7.97;6.80;;;2.30;99.90;;;;;;5065779;28;20458;-43
2021/12/07 02:31:30;;;;;;;9.85;7.45;;;2.20;99.90;;;;;;5065029;28;20068;-43
2021/12/07 02:33:56;;;;;;;9.52;7.75;;;2.30;99.90;;;;;;5065173;28;20447;-43
2021/12/07 02:36:22;;;;;;;10.00;7.88;;;2.30;99.90;;;;;;5066604;28;20025;-43
2021/12/07 02:38:48;;;;;;;9.07;7.60;;;2.20;99.90;;;;;;5066215;28;20100;-43
2021/12/07 02:41:14;;;;;;;9.73;7.57;;;2.20;99.90;;;;;;5066638;28;20020;-43
2021/12/07 02:43:40;;;;;;;9.77;7.72;;;2.20;99.90;;;;;;5065276;28;20039;-43
2021/12/07 02:46:05;;;;;;;9.88;8.13;;;2.10;99.90;;;;;;5065729;28;20033;-43
2021/12/07 02:48:31;;;;;;;9.23;7.90;;;2.10;99.90;;;;;;5067329;28;20046;-43
2021/12/07 02:50:57;;;;;;;9.07;7.70;;;2.10;99.90;;;;;;5069046;28;20149;-43
2021/12/07 02:53:26;;;;;;;11.40;8.70;;;2.10;99.90;;;;;;5069411;28;20105;-44
2021/12/07 02:55:57;;;;;;;12.57;9.43;;;2.10;99.90;;;;;;5068258;28;20434;-43
2021/12/07 02:58:23;;;;;;;11.45;8.25;;;2.10;99.90;;;;;;5068684;28;20024;-43
2021/12/07 03:01:01;;;;;;;10.75;8.68;;;2.10;99.90;;;;;;5069496;28;20082;-43
2021/12/07 03:03:29;;;;;;;11.85;8.73;;;2.00;99.90;;;;;;5068020;28;20055;-43
2021/12/07 03:06:10;;;;;;;13.50;9.05;;;2.00;99.90;;;;;;5068795;28;20498;-44
2021/12/07 03:27:49;;;;;;;10.85;8.32;;;2.10;99.90;;;;;;5049468;28;20178;-43
2021/12/07 03:30:15;;;;;;;11.57;8.82;;;2.00;99.90;;;;;;5065433;28;20119;-43
2021/12/07 03:32:41;;;;;;;10.75;8.38;;;2.00;99.90;;;;;;5068608;28;20062;-43
2021/12/07 03:35:07;;;;;;;10.38;7.78;;;2.00;99.90;;;;;;5068569;28;20032;-43
2021/12/07 03:37:32;;;;;;;10.48;7.93;;;2.00;99.90;;;;;;5068538;28;20107;-43
2021/12/07 03:39:58;;;;;;;12.20;8.30;;;2.00;99.90;;;;;;5068892;28;20150;-43
2021/12/07 03:42:24;;;;;;;11.60;7.85;;;2.00;99.90;;;;;;5068959;28;20078;-43
2021/12/07 03:44:49;;;;;;;9.85;8.10;;;2.00;99.90;;;;;;5067349;28;20028;-44
2021/12/07 03:47:15;;;;;;;11.50;8.05;;;1.90;99.90;;;;;;5068926;28;20028;-43
2021/12/07 03:49:40;;;;;;;10.85;7.90;;;1.90;99.90;;;;;;5068238;28;20024;-43
2021/12/07 03:52:06;;;;;;;12.13;8.13;;;1.90;99.90;;;;;;5066520;28;20036;-43
2021/12/07 03:54:32;;;;;;;11.30;7.85;;;1.90;99.90;;;;;;5067698;28;20484;-44
2021/12/07 03:56:57;;;;;;;13.25;8.27;;;2.00;99.90;;;;;;5068017;28;20024;-44
2021/12/07 03:59:23;;;;;;;10.98;6.90;;;2.00;99.90;;;;;;5066754;28;20020;-43
2021/12/07 04:01:51;;;;;;;9.73;6.38;;;2.00;99.90;;;;;;5068340;28;20012;-43
2021/12/07 04:04:18;;;;;;;9.82;6.10;;;2.10;99.90;;;;;;5069368;28;20029;-42
2021/12/07 04:06:43;;;;;;;8.85;6.10;;;2.10;99.90;;;;;;5066890;28;20543;-43
2021/12/07 04:09:12;;;;;;;10.20;5.82;;;2.10;99.90;;;;;;5067181;28;20025;-43
2021/12/07 04:11:37;;;;;;;10.02;6.00;;;2.20;99.90;;;;;;5066616;28;20108;-43
2021/12/07 04:14:03;;;;;;;10.30;5.15;;;2.20;99.90;;;;;;5067582;28;20079;-43
2021/12/07 04:16:29;;;;;;;8.93;4.85;;;2.30;99.90;;;;;;5067448;28;20024;-44
2021/12/07 04:18:54;;;;;;;9.52;5.15;;;2.30;99.90;;;;;;5067552;28;20032;-44
2021/12/07 04:21:20;;;;;;;9.57;4.30;;;2.40;99.90;;;;;;5067439;28;20036;-43
2021/12/07 04:23:46;;;;;;;6.82;4.20;;;2.40;99.90;;;;;;5067237;28;20155;-41
2021/12/07 04:26:13;;;;;;;7.82;3.70;;;2.50;99.90;;;;;;5067218;28;20108;-43
2021/12/07 04:28:40;;;;;;;8.82;4.00;;;2.50;99.90;;;;;;5067297;28;20033;-44
2021/12/07 04:31:06;;;;;;;7.18;3.65;;;2.50;99.90;;;;;;5067327;28;20025;-44
2021/12/07 04:33:33;;;;;;;7.65;4.05;;;2.60;99.90;;;;;;5066945;28;20507;-44
2021/12/07 04:35:59;;;;;;;6.13;4.30;;;2.60;99.90;;;;;;5067814;28;20107;-43
2021/12/07 04:38:25;;;;;;;6.47;3.95;;;2.70;99.90;;;;;;5067644;28;20194;-44
2021/12/07 04:40:50;;;;;;;6.53;4.10;;;2.60;99.90;;;;;;5066886;28;20174;-44
2021/12/07 04:43:16;;;;;;;5.70;4.30;;;2.70;99.90;;;;;;5067786;28;20077;-43
2021/12/07 04:58:51;;;;;;;5.90;3.03;;;2.50;99.90;;;;;;5066222;28;20043;-43
2021/12/07 05:01:17;;;;;;;6.28;2.67;;;2.50;99.90;;;;;;5066335;28;20388;-44
2021/12/07 05:03:43;;;;;;;6.63;2.80;;;2.40;99.90;;;;;;5067152;28;20044;-43
2021/12/07 05:06:11;;;;;;;6.68;2.88;;;2.40;99.90;;;;;;5067198;28;20124;-43
2021/12/07 05:08:46;;;;;;;5.00;2.63;;;2.40;99.90;;;;;;5065889;28;20029;-44
2021/12/07 05:13:56;;;;;;;7.50;2.88;;;2.30;99.90;;;;;;5067040;28;20036;-43
2021/12/07 05:19:14;;;;;;;3.97;2.65;;;2.30;99.90;;;;;;5062089;28;20469;-43
2021/12/07 05:24:25;;;;;;;8.70;2.92;;;2.30;99.90;;;;;;5066505;28;20074;-43
2021/12/07 05:37:48;;;;;;;10.20;3.35;;;2.70;99.90;;;;;;5065870;28;20060;-43
2021/12/07 05:40:18;;;;;;;7.00;2.63;;;2.70;99.90;;;;;;5063350;28;20035;-43
2021/12/07 05:42:44;;;;;;;7.40;2.90;;;2.70;99.90;;;;;;5066596;28;20512;-44
2021/12/07 05:45:13;;;;;;;10.80;3.50;;;2.70;99.90;;;;;;5065513;28;20038;-44
2021/12/07 05:47:39;;;;;;;10.95;3.25;;;2.70;99.90;;;;;;5066677;28;20380;-44
2021/12/07 05:50:06;;;;;;;11.18;3.97;;;2.60;99.90;;;;;;5065701;28;20078;-43
2021/12/07 05:52:32;;;;;;;9.20;2.70;;;2.60;99.90;;;;;;5066602;28;20033;-43
2021/12/07 05:54:57;;;;;;;5.75;2.65;;;2.60;99.90;;;;;;5065710;28;20074;-44
2021/12/07 05:57:23;;;;;;;6.75;2.80;;;2.60;99.90;;;;;;5065155;28;20031;-43
2021/12/07 05:59:48;;;;;;;6.18;2.90;;;2.60;99.90;;;;;;5065351;28;20663;-43
2021/12/07 06:02:14;;;;;;;9.60;2.97;;;2.50;99.90;;;;;;5065952;28;20124;-43
2021/12/07 06:04:40;;;;;;;6.18;2.38;;;2.50;99.90;;;;;;5065018;28;20116;-43
2021/12/07 06:07:05;;;;;;;9.32;2.90;;;2.50;99.90;;;;;;5066454;28;20028;-43
2021/12/07 06:09:31;;;;;;;4.70;2.55;;;2.50;99.90;;;;;;5066206;28;20105;-43
2021/12/07 06:11:57;;;;;;;7.45;2.38;;;2.50;99.90;;;;;;5064887;28;20044;-44
2021/12/07 06:14:30;;;;;;;6.28;2.63;;;2.40;99.90;;;;;;5066530;28;20024;-43
2021/12/07 06:16:56;;;;;;;3.88;2.00;;;2.40;99.90;;;;;;5054802;28;20056;-44
2021/12/07 06:19:25;;;;;;;6.35;2.30;;;2.40;99.90;;;;;;5064376;28;20533;-43
2021/12/07 06:21:50;;;;;;;5.60;2.33;;;2.40;99.90;;;;;;5066889;28;20095;-44
2021/12/07 06:24:16;;;;;;;6.35;2.72;;;2.30;99.90;;;;;;5070182;28;20515;-43
2021/12/07 06:26:41;;;;;;;5.70;2.72;;;2.40;99.90;;;;;;5069317;28;20033;-42
2021/12/07 06:29:07;;;;;;;8.48;2.97;;;2.40;99.90;;;;;;5070735;28;20507;-43
2021/12/07 06:31:33;;;;;;;6.82;3.45;;;2.50;99.90;;;;;;5070063;28;20024;-43
2021/12/07 06:33:58;;;;;;;7.47;3.35;;;2.40;99.90;;;;;;5069375;28;20490;-44
2021/12/07 06:36:24;;;;;;;8.00;3.40;;;2.40;99.90;;;;;;5069857;28;20089;-43
2021/12/07 06:38:50;;;;;;;6.88;3.15;;;2.40;99.90;;;;;;5055439;28;20059;-44
2021/12/07 06:41:16;;;;;;;8.80;3.83;;;2.50;99.90;;;;;;5062392;28;20024;-42
2021/12/07 06:43:43;;;;;;;9.35;3.45;;;2.50;99.90;;;;;;5064908;28;20476;-43
2021/12/07 06:46:10;;;;;;;8.52;4.13;;;2.60;99.90;;;;;;5069132;28;20032;-44
2021/12/07 06:48:35;;;;;;;8.15;3.45;;;2.70;99.90;;;;;;5067989;28;20028;-43
2021/12/07 06:51:02;;;;;;;7.07;3.65;;;2.70;99.90;;;;;;5068512;28;20035;-44
2021/12/07 06:53:35;;;;;;;6.15;3.30;;;2.70;99.90;;;;;;5067487;28;20032;-43
2021/12/07 06:56:04;;;;;;;9.38;3.58;;;2.70;99.90;;;;;;5068528;28;20441;-43
2021/12/07 06:58:29;;;;;;;7.03;3.03;;;2.60;99.90;;;;;;5067417;28;20117;-43
2021/12/07 07:00:55;;;;;;;5.40;2.80;;;2.60;99.90;;;;;;5067033;28;20457;-43
2021/12/07 07:03:20;;;;;;;10.40;3.33;;;2.50;99.90;;;;;;5068271;28;20055;-43
2021/12/07 07:05:46;;;;;;;7.55;3.75;;;2.40;99.90;;;;;;5067501;28;20104;-44
2021/12/07 07:08:11;;;;;;;5.70;3.15;;;2.30;99.90;;;;;;5068920;28;20119;-43
2021/12/07 07:10:37;;;;;;;7.90;2.97;;;2.30;99.90;;;;;;5070650;28;20025;-42
2021/12/07 07:13:03;;;;;;;6.15;3.10;;;2.30;99.90;;;;;;5068378;28;20036;-44
2021/12/07 07:15:30;;;;;;;9.60;3.58;;;2.20;99.90;;;;;;5067308;28;20139;-43
2021/12/07 07:17:55;;;;;;;5.63;2.90;;;2.20;99.90;;;;;;5068304;28;20484;-44
2021/12/07 07:20:21;;;;;;;5.57;2.60;;;2.20;99.90;;;;;;5068989;28;20119;-44
2021/12/07 07:22:47;;;;;;;6.20;2.97;;;2.20;99.90;;;;;;5066761;28;20059;-43
2021/12/07 07:25:13;;;;;;;7.15;3.10;;;2.20;99.90;;;;;;5069392;28;20418;-43
2021/12/07 07:27:40;;;;;;;5.38;2.97;;;2.20;99.90;;;;;;5066531;28;20056;-43
2021/12/07 07:30:08;;;;;;;7.75;2.83;;;2.20;99.90;;;;;;5067093;28;20028;-44
2021/12/07 07:32:34;;;;;;;3.95;2.80;;;2.20;99.90;;;;;;5067599;28;20089;-43
2021/12/07 07:35:00;;;;;;;4.10;2.67;;;2.20;99.90;;;;;;5067486;28;20021;-43
2021/12/07 07:37:25;;;;;;;6.53;3.30;;;2.20;99.90;;;;;;5067225;28;20031;-43
2021/12/07 07:39:51;;;;;;;10.80;2.97;;;2.20;99.90;;;;;;5067946;28;20064;-43
2021/12/07 07:42:16;;;;;;;6.72;2.63;;;2.20;99.90;;;;;;5068978;28;20111;-43
2021/12/07 07:44:42;;;;;;;13.07;2.67;;;2.10;99.90;;;;;;5067857;28;20071;-44
2021/12/07 07:47:08;;;;;;;3.85;2.42;;;2.10;99.90;;;;;;5053752;28;20041;-43
2021/12/07 07:49:33;;;;;;;4.07;2.10;;;2.10;99.90;;;;;;5068336;28;20501;-43
2021/12/07 07:52:00;;;;;;;5.53;2.50;;;2.10;99.90;;;;;;5069646;28;20032;-44
2021/12/07 07:54:25;;;;;;;7.30;2.70;;;2.10;99.90;;;;;;5068040;28;20382;-43
2021/12/07 07:56:51;;;;;;;9.05;2.67;;;2.10;99.90;;;;;;5060735;28;20619;-44
2021/12/07 07:59:16;;;;;;;9.77;3.58;;;2.10;99.90;;;;;;5062423;28;20112;-44
2021/12/07 08:01:48;;;;;;;7.13;2.45;;;2.10;99.90;;;;;;5066827;28;20036;-43
2021/12/07 08:04:14;;;;;;;10.43;2.97;;;2.10;99.90;;;;;;5065458;28;20020;-44
2021/12/07 08:06:39;;;;;;;11.00;2.85;;;2.20;99.90;;;;;;5065809;28;20074;-44
2021/12/07 08:09:08;;;;;;;7.47;3.17;;;2.20;99.90;;;;;;5067389;28;20012;-46
2021/12/07 08:11:34;;;;;;;6.22;3.00;;;2.20;99.90;;;;;;5066300;28;20036;-44
2021/12/07 08:14:00;;;;;;;7.68;2.90;;;2.20;99.90;;;;;;5067259;28;20020;-44
2021/12/07 08:16:26;;;;;;;4.18;2.35;;;2.20;99.90;;;;;;5066639;28;20146;-42
2021/12/07 08:18:52;;;;;;;6.18;2.40;;;2.20;99.90;;;;;;5066856;28;20035;-44
2021/12/07 08:21:18;;;;;;;5.78;2.78;;;2.20;99.90;;;;;;5067986;28;20642;-44
2021/12/07 08:23:45;;;;;;;7.18;2.88;;;2.30;99.90;;;;;;5068146;28;20395;-44
2021/12/07 08:26:14;;;;;;;7.72;3.38;;;2.30;99.90;;;;;;5065314;28;20032;-44
2021/12/07 08:28:40;;;;;;;7.90;3.08;;;2.30;99.90;;;;;;5066919;28;20038;-43
2021/12/07 08:31:06;;;;;;;6.05;2.67;;;2.30;99.90;;;;;;5066823;28;20032;-44
2021/12/07 08:33:32;;;;;;;6.63;2.65;;;2.30;99.90;;;;;;5066532;28;20480;-44
2021/12/07 08:36:00;;;;;;;7.75;3.00;;;2.30;99.90;;;;;;5066454;28;20029;-44
2021/12/07 08:38:25;;;;;;;7.20;2.97;;;2.40;99.90;;;;;;5066433;28;20430;-43
2021/12/07 08:40:55;;;;;;;4.10;2.53;;;2.30;99.90;;;;;;5066041;28;20094;-44
2021/12/07 08:43:29;;;;;;;8.60;3.25;;;2.40;99.90;;;;;;5067086;28;21020;-44
2021/12/07 08:45:56;;;;;;;9.43;2.95;;;2.40;99.90;;;;;;5064278;28;20036;-43
2021/12/07 08:48:22;;;;;;;6.03;2.75;;;2.40;99.90;;;;;;5066674;28;20150;-44
2021/12/07 08:50:48;;;;;;;8.45;3.15;;;2.50;99.90;;;;;;5066242;28;20853;-44
2021/12/07 08:53:17;;;;;;;4.65;2.63;;;2.50;99.90;;;;;;5066282;28;20037;-44
2021/12/07 09:01:17;;;;;;;6.57;2.80;;;2.50;99.90;;;;;;5059951;28;20476;-43
2021/12/07 09:03:44;;;;;;;5.82;2.63;;;2.50;99.90;;;;;;5065741;28;20036;-43
2021/12/07 09:06:10;;;;;;;8.63;3.05;;;2.50;99.90;;;;;;5062936;28;20025;-43
2021/12/07 09:08:35;;;;;;;6.57;3.53;;;2.50;99.90;;;;;;5065235;28;20024;-44
2021/12/07 09:11:03;;;;;;;7.50;3.10;;;2.50;99.90;;;;;;5066912;28;20032;-44
2021/12/07 09:13:29;;;;;;;6.22;3.38;;;2.60;99.90;;;;;;5066411;28;20023;-42
2021/12/07 09:15:56;;;;;;;5.30;3.10;;;2.60;99.90;;;;;;5064194;28;20037;-43
2021/12/07 09:18:30;;;;;;;4.47;2.88;;;2.60;99.90;;;;;;5061980;28;20399;-34
2021/12/07 09:20:57;;;;;;;7.93;3.28;;;2.60;99.90;;;;;;5059713;28;20031;-34
2021/12/07 09:23:23;;;;;;;6.75;3.75;;;2.60;99.90;;;;;;5063702;28;20028;-34
2021/12/07 09:25:48;;;;;;;6.00;3.15;;;2.60;99.90;;;;;;5063691;28;20031;-32
2021/12/07 09:28:14;;;;;;;6.70;3.22;;;2.60;99.90;;;;;;5062121;28;20466;-33
2021/12/07 09:30:40;;;;;;;7.60;3.60;;;2.60;99.90;;;;;;5063313;28;20128;-34
2021/12/07 09:33:06;;;;;;;6.75;3.97;;;2.60;99.90;;;;;;5063519;28;20020;-34
2021/12/07 09:35:33;;;;;;;6.20;3.70;;;2.60;99.90;;;;;;5062823;28;20042;-33
2021/12/07 09:37:59;;;;;;;7.78;3.85;;;2.70;99.90;;;;;;5061391;28;20032;-33
2021/12/07 09:40:28;;;;;;;9.60;4.40;;;2.70;99.90;;;;;;5062502;28;20480;-34
2021/12/07 09:42:54;;;;;;;11.85;5.53;;;2.90;99.90;;;;;;5061995;28;20569;-34
2021/12/07 09:45:20;;;;;;;13.82;4.55;;;3.00;99.90;;;;;;5063113;28;20059;-33
2021/12/07 09:47:46;;;;;;;11.82;4.88;;;3.00;99.90;;;;;;5062272;28;20052;-34
2021/12/07 09:50:16;;;;;;;10.35;4.05;;;3.10;99.90;;;;;;5062092;28;20030;-34
2021/12/07 09:52:44;;;;;;;14.95;5.75;;;3.10;99.90;;;;;;5061114;28;20075;-35
2021/12/07 09:55:16;;;;;;;13.30;5.60;;;3.20;99.90;;;;;;5062269;28;20021;-33
2021/12/07 09:57:43;;;;;;;13.15;5.32;;;3.20;99.90;;;;;;5060051;28;20036;-34
2021/12/07 10:00:15;;;;;;;12.73;6.65;;;3.30;99.90;;;;;;5060708;28;20017;-33
2021/12/07 10:02:40;;;;;;;13.55;5.53;;;3.40;99.90;;;;;;5061395;28;20051;-34
2021/12/07 10:05:07;;;;;;;14.52;5.65;;;3.50;99.90;;;;;;5060577;28;20774;-34
2021/12/07 10:07:33;;;;;;;13.02;5.43;;;3.50;99.90;;;;;;5060580;28;20475;-34
2021/12/07 10:09:59;;;;;;;14.50;5.72;;;3.60;99.90;;;;;;5062247;28;20032;-34
2021/12/07 10:12:25;;;;;;;10.57;5.32;;;3.60;99.90;;;;;;5060744;28;20119;-34
2021/12/07 10:14:51;;;;;;;7.88;4.80;;;3.60;99.90;;;;;;5062602;28;20033;-34
2021/12/07 10:17:23;;;;;;;10.18;4.80;;;3.70;99.90;;;;;;5060665;28;21248;-33
2021/12/07 10:19:49;;;;;;;8.05;4.53;;;3.70;99.90;;;;;;5061318;28;20032;-34
2021/12/07 10:22:20;;;;;;;11.85;4.65;;;3.70;99.90;;;;;;5062828;28;20503;-34
2021/12/07 10:24:49;;;;;;;12.52;5.03;;;3.70;99.90;;;;;;5058104;28;20066;-33
2021/12/07 10:27:40;;;;;;;11.50;5.13;;;3.60;99.90;;;;;;5062405;28;20032;-33
2021/12/07 10:30:19;;;;;;;12.77;4.63;;;3.70;99.90;;;;;;5046777;28;20059;-33
2021/12/07 10:32:59;;;;;;;11.57;4.85;;;3.60;99.90;;;;;;5048013;28;20017;-32
2021/12/07 10:35:30;;;;;;;11.68;4.70;;;3.60;99.90;;;;;;5048261;28;20036;-34
2021/12/07 10:38:11;;;;;;;13.18;4.82;;;3.60;99.90;;;;;;5047924;28;20158;-34
2021/12/07 10:40:58;;;;;;;9.55;4.53;;;3.60;99.90;;;;;;5047867;28;20028;-33
2021/12/07 10:43:42;;;;;;;10.05;4.35;;;3.60;99.90;;;;;;5048514;28;20017;-32
2021/12/07 10:46:40;;;;;;;10.05;5.10;;;3.70;99.90;;;;;;5039888;28;20043;-39
2021/12/07 10:49:10;;;;;;;13.57;5.50;;;3.70;99.90;;;;;;5047873;28;20032;-33
2021/12/07 10:51:36;;;;;;;12.57;4.80;;;3.70;99.90;;;;;;5049474;28;20040;-34
2021/12/07 10:54:03;;;;;;;14.13;5.55;;;3.70;99.90;;;;;;5047173;28;20032;-33
2021/12/07 10:56:34;;;;;;;16.63;5.40;;;3.80;99.90;;;;;;5048078;28;20054;-33
2021/12/07 10:58:59;;;;;;;8.52;4.63;;;3.80;99.90;;;;;;5047545;28;20052;-34
2021/12/07 11:01:53;;;;;;;11.13;5.47;;;3.80;99.90;;;;;;5047514;28;20472;-34
2021/12/07 11:04:22;;;;;;;12.27;4.97;;;3.80;99.90;;;;;;5046421;28;20036;-34
2021/12/07 11:07:09;;;;;;;10.68;4.45;;;3.80;99.90;;;;;;5047512;28;20025;-34
2021/12/07 11:09:55;;;;;;;11.70;4.38;;;3.90;99.90;;;;;;5047505;28;20078;-32
2021/12/07 11:12:24;;;;;;;12.00;4.32;;;3.90;99.90;;;;;;5048548;28;20123;-33
2021/12/07 11:14:58;;;;;;;11.70;4.47;;;4.00;99.90;;;;;;5046594;28;20106;-35
2021/12/07 11:17:27;;;;;;;10.75;4.20;;;4.00;99.90;;;;;;5047321;28;20154;-34
2021/12/07 11:19:54;;;;;;;9.95;3.83;;;4.00;99.90;;;;;;5047557;28;20124;-34
2021/12/07 11:22:23;;;;;;;6.57;3.83;;;4.10;99.90;;;;;;5047347;28;20029;-33
2021/12/07 11:24:51;;;;;;;12.80;4.05;;;4.20;99.90;;;;;;5048143;28;20025;-34
2021/12/07 11:30:27;;;;;;;8.90;3.42;;;4.20;99.90;;;;;;5047248;28;20028;-35
2021/12/07 11:32:56;;;;;;;7.97;3.30;;;4.30;99.90;;;;;;5047799;28;20025;-33
2021/12/07 11:35:35;;;;;;;4.90;3.05;;;4.40;99.90;;;;;;5043669;28;20040;-33
2021/12/07 11:38:05;;;;;;;8.70;3.60;;;4.40;99.90;;;;;;5039745;28;20133;-34
2021/12/07 11:40:35;;;;;;;9.50;3.65;;;4.50;99.90;;;;;;5046477;28;20827;-34
2021/12/07 11:43:01;;;;;;;9.68;3.58;;;4.50;99.90;;;;;;5047078;28;20091;-34
2021/12/07 11:45:30;;;;;;;9.65;3.88;;;4.60;99.90;;;;;;5049750;28;20020;-33
2021/12/07 11:47:59;;;;;;;8.05;3.75;;;4.70;99.90;;;;;;5046613;28;20636;-32
2021/12/07 11:50:24;;;;;;;6.50;3.13;;;4.80;99.90;;;;;;5042045;28;20058;-33
2021/12/07 11:52:54;;;;;;;7.43;4.18;;;4.80;99.90;;;;;;5036014;28;20460;-34
2021/12/07 11:55:21;;;;;;;8.77;3.78;;;4.80;99.90;;;;;;5036253;28;20017;-34
2021/12/07 11:57:48;;;;;;;12.07;4.28;;;4.80;99.90;;;;;;5036482;28;20443;-33
2021/12/07 12:00:19;;;;;;;10.38;3.92;;;4.90;99.90;;;;;;5037146;28;20017;-33
2021/12/07 12:02:45;;;;;;;11.98;3.97;;;4.90;99.90;;;;;;5037539;28;20625;-34
2021/12/07 12:05:11;;;;;;;10.65;4.50;;;4.90;99.90;;;;;;5037137;28;20017;-33
2021/12/07 12:07:41;;;;;;;10.82;4.40;;;4.90;99.90;;;;;;5036904;28;20058;-34
2021/12/07 12:10:08;;;;;;;11.10;4.25;;;5.00;99.90;;;;;;5032418;28;20255;-34
2021/12/07 12:13:07;;;;;;;8.32;4.30;;;5.00;99.90;;;;;;5041646;28;20025;-34
2021/12/07 12:16:01;;;;;;;7.38;3.75;;;5.10;99.90;;;;;;5024345;28;20112;-34
2021/12/07 12:18:34;;;;;;;;;;;5.10;99.90;;;;;;5032722;28;20712;-35
2021/12/07 12:21:27;;;;;;;8.60;3.83;;;5.10;99.90;;;;;;5028683;28;19913;-33
2021/12/07 12:24:18;;;;;;;15.43;3.90;;;5.10;99.90;;;;;;5036175;28;20333;-35
2021/12/07 12:26:45;;;;;;;8.35;3.88;;;5.10;99.90;;;;;;5027488;28;20029;-33
2021/12/07 12:29:22;;;;;;;12.02;4.07;;;5.10;99.90;;;;;;5040813;28;20021;-34
2021/12/07 12:31:57;;;;;;;8.73;3.50;;;5.20;99.90;;;;;;5033480;28;20048;-33
2021/12/07 12:34:27;;;;;;;10.23;3.13;;;5.20;99.90;;;;;;5035769;28;20100;-33
2021/12/07 12:36:58;;;;;;;6.32;3.53;;;5.20;99.90;;;;;;5036837;28;20033;-34
2021/12/07 12:39:42;;;;;;;10.27;3.78;;;5.20;99.90;;;;;;5035085;28;20777;-34
2021/12/07 12:42:22;;;;;;;12.15;4.35;;;5.30;99.90;;;;;;5011522;28;20041;-34
2021/12/07 12:44:48;;;;;;;8.05;3.50;;;5.30;99.90;;;;;;5044561;28;20029;-35
2021/12/07 12:47:19;;;;;;;8.77;4.15;;;5.30;99.90;;;;;;5040736;28;20373;-34
2021/12/07 12:49:46;;;;;;;9.40;4.30;;;5.30;99.90;;;;;;5037932;28;20052;-33
2021/12/07 12:52:12;;;;;;;14.20;5.20;;;5.30;99.90;;;;;;5025905;28;20029;-34
2021/12/07 12:54:41;;;;;;;7.50;3.80;;;5.30;99.90;;;;;;5038518;28;20025;-33
2021/12/07 12:57:12;;;;;;;11.40;4.35;;;5.40;99.90;;;;;;5047431;28;20021;-34
2021/12/07 12:59:40;;;;;;;13.27;4.43;;;5.40;99.90;;;;;;5033850;28;20114;-34
2021/12/07 13:02:05;;;;;;;10.88;4.10;;;5.40;99.90;;;;;;5046608;28;20025;-34
2021/12/07 13:04:34;;;;;;;9.10;4.00;;;5.40;99.90;;;;;;5034044;28;20385;-34
2021/12/07 13:09:46;;;;;;;10.55;3.85;;;5.40;99.90;;;;;;5035986;28;20041;-38
2021/12/07 13:12:24;;;;;;;9.45;3.53;;;5.40;99.90;;;;;;5027575;28;20513;-34
2021/12/07 13:14:49;;;;;;;12.90;4.80;;;5.40;99.90;;;;;;5037566;28;20022;-34
2021/12/07 13:17:26;;;;;;;9.93;4.03;;;5.40;99.90;;;;;;5027310;28;20056;-34
2021/12/07 13:20:13;;;;;;;11.88;4.50;;;5.40;99.90;;;;;;5039164;28;20037;-34
2021/12/07 13:23:00;;;;;;;11.27;4.32;;;5.40;99.90;;;;;;5006223;28;20038;-34
2021/12/07 13:25:43;;;;;;;11.07;4.60;;;5.40;99.90;;;;;;5038007;28;20033;-33
2021/12/07 13:28:11;;;;;;;11.07;4.32;;;5.40;99.90;;;;;;5025992;28;20064;-34
2021/12/07 13:30:59;;;;;;;7.93;3.60;;;5.40;99.90;;;;;;5038508;28;20443;-34
2021/12/07 13:33:34;;;;;;;9.50;3.97;;;5.30;99.90;;;;;;5026847;28;20418;-34
2021/12/07 13:36:01;;;;;;;13.13;4.03;;;5.30;99.90;;;;;;5036488;28;20017;-33
2021/12/07 13:38:30;;;;;;;13.75;4.15;;;5.30;99.90;;;;;;5026081;28;20038;-34
2021/12/07 13:41:13;;;;;;;11.05;4.00;;;5.30;99.90;;;;;;5038356;28;20391;-33
2021/12/07 13:43:42;;;;;;;10.05;3.83;;;5.30;99.90;;;;;;5026919;28;20473;-34
2021/12/07 13:46:28;;;;;;;12.00;3.78;;;5.20;99.90;;;;;;5038288;28;20113;-34
2021/12/07 13:49:05;;;;;;;7.50;3.58;;;5.20;99.90;;;;;;5025898;28;20029;-33
2021/12/07 13:51:31;;;;;;;9.27;3.75;;;5.20;99.90;;;;;;5035045;28;20024;-34
2021/12/07 13:54:00;;;;;;;8.27;3.17;;;5.20;99.90;;;;;;5044048;28;20037;-34
2021/12/07 13:56:26;;;;;;;10.80;3.53;;;5.20;99.90;;;;;;5037177;28;20021;-34
2021/12/07 13:58:51;;;;;;;8.38;3.30;;;5.10;99.90;;;;;;5026716;28;20043;-34
2021/12/07 14:01:17;;;;;;;9.13;3.22;;;5.10;99.90;;;;;;5038271;28;20112;-34
2021/12/07 14:03:44;;;;;;;7.50;3.22;;;5.10;99.90;;;;;;5027040;28;20025;-34
2021/12/07 14:06:09;;;;;;;8.10;2.97;;;5.10;99.90;;;;;;5039080;28;20086;-34
2021/12/07 14:08:35;;;;;;;8.45;2.92;;;5.10;99.90;;;;;;5032871;28;20026;-34
2021/12/07 14:11:01;;;;;;;8.77;3.35;;;5.00;99.90;;;;;;5036464;28;20028;-34
2021/12/07 14:13:29;;;;;;;7.20;3.45;;;5.00;99.90;;;;;;5035351;28;20018;-32
2021/12/07 14:15:55;;;;;;;7.90;3.00;;;5.00;99.90;;;;;;5034153;28;20056;-33
2021/12/07 14:18:23;;;;;;;6.03;3.22;;;5.00;99.90;;;;;;5041497;28;20081;-35
2021/12/07 14:20:52;;;;;;;10.95;3.60;;;5.00;99.90;;;;;;5044554;28;20068;-34
2021/12/07 14:23:37;;;;;;;8.38;3.40;;;5.00;99.90;;;;;;5039345;28;20414;-34
2021/12/07 14:26:10;;;;;;;7.78;3.17;;;4.90;99.90;;;;;;5032894;28;20052;-33
2021/12/07 14:28:43;;;;;;;19.33;6.15;;;4.90;99.90;;;;;;5037496;28;20403;-33
2021/12/07 14:31:16;;;;;;;8.50;3.35;;;4.90;99.90;;;;;;5033810;28;20025;-33
2021/12/07 14:33:45;;;;;;;8.90;3.45;;;4.90;99.90;;;;;;5035983;28;20084;-33
2021/12/07 14:36:13;;;;;;;10.65;3.72;;;4.80;99.90;;;;;;5030915;28;20033;-34
2021/12/07 14:38:39;;;;;;;11.88;3.92;;;4.80;99.90;;;;;;5039514;28;20644;-32
2021/12/07 14:41:12;;;;;;;8.27;3.22;;;4.80;99.90;;;;;;5030923;28;20039;-32